Stewartville, MN

1:47 AM CDT on July 28, 2015 (GMT -0500)
KMNSTEWA3 | | Change Station
CLOSE
Current Station
Personal Weather Station
Location: Stewartville, MN
Elevation: 1253 ft
Nearby Weather Stations

Elev 1253 ft 43.84 °N, 92.48 °W | Updated 9 minutes ago

Clear
Clear
70.7 °F
Feels Like 70.7 °F
N
2.0
Wind Variable Wind from SSE
Gusts 8.0 mph

Today
High -- | Low -- °F
--% Chance of Precip.
Yesterday
High -- | Low -- °F
Precip. -- in
5:53 AM 8:38 PM
Waxing Gibbous, 87% visible
Pressure 29.94 in
Visibility 5.0 miles
Clouds Clear
Dew Point 69 °F
Humidity 93%
Rainfall 0.00 in
Snow Depth Not available.
UV 0 out of 12
Pollen 4.80 out of 12
Air Quality Not available.
Flu Activity Not available.
METAR KRST 280554Z AUTO 15007KT 5SM BR CLR 22/21 A2996 RMK AO2 SLP138 T02170206 10267 20217 402780194 58002

More Conditions Fewer Conditions

Pressure 29.94 in
Visibility 5.0 miles
Clouds Clear
Dew Point 69 °F
Humidity 93%
Rainfall 0.00 in
Snow Depth Not available.
UV 0 out of 12
Pollen 4.80 out of 12
Air Quality Not available.
Flu Activity Not available.
METAR KRST 280554Z AUTO 15007KT 5SM BR CLR 22/21 A2996 RMK AO2 SLP138 T02170206 10267 20217 402780194 58002

More Conditions Fewer Conditions

10-Day Weather Forecast

×

Almanac

Astronomy

Jul. 28, 2015 Rise Set
Actual Time
Civil Twilight
Nautical Twilight
Astronomical Twilight
Moon
Length of Visible Light
Length of Day
Tomorrow will be .
, % of the Moon is Illuminated

Today's Extremes

State Highs State Lows

Community

WunderPhotos

Upload Photos

1,841,796 photos uploaded!

WunderBlogs® & News

Nearby

Air Quality

  Air Quality AQ Index Pollutant
Not available.

Snow Depth

Station Depth Elevation

Earthquake Activity

City Distance Mag. Time & Date
Minimum magnitude displayed is 2.5.

Coastal Water Temperatures

Place Temperature

Stations

Nearby Weather Stations

Station Location Temp. Windchill Dew Point Humidity Wind Precip. Elev Updated Type